sensor_id;sensor_type;location;lat;lon;timestamp;pressure;altitude;pressure_sealevel;temperature;humidity
23363;BME280;11853;48.080;11.960;2022-08-21T00:00:10;94915.50;;;17.99;100.00
23363;BME280;11853;48.080;11.960;2022-08-21T00:02:36;94908.50;;;17.98;100.00
23363;BME280;11853;48.080;11.960;2022-08-21T00:05:03;94903.13;;;17.98;100.00
23363;BME280;11853;48.080;11.960;2022-08-21T00:07:29;94900.63;;;17.96;100.00
23363;BME280;11853;48.080;11.960;2022-08-21T00:09:54;94897.09;;;17.96;100.00
23363;BME280;11853;48.080;11.960;2022-08-21T00:12:20;94899.16;;;17.94;100.00
23363;BME280;11853;48.080;11.960;2022-08-21T00:14:46;94895.47;;;17.95;100.00
23363;BME280;11853;48.080;11.960;2022-08-21T00:17:12;94898.16;;;17.95;100.00
23363;BME280;11853;48.080;11.960;2022-08-21T00:19:37;94896.88;;;17.91;100.00
23363;BME280;11853;48.080;11.960;2022-08-21T00:22:03;94894.63;;;17.94;100.00
23363;BME280;11853;48.080;11.960;2022-08-21T00:24:29;94892.78;;;17.95;100.00
23363;BME280;11853;48.080;11.960;2022-08-21T00:26:54;94890.69;;;17.97;100.00
23363;BME280;11853;48.080;11.960;2022-08-21T00:29:20;94896.53;;;18.00;100.00
23363;BME280;11853;48.080;11.960;2022-08-21T00:31:46;94896.28;;;17.95;100.00
23363;BME280;11853;48.080;11.960;2022-08-21T00:34:13;94891.50;;;17.91;100.00
23363;BME280;11853;48.080;11.960;2022-08-21T00:36:38;94894.00;;;17.92;100.00
23363;BME280;11853;48.080;11.960;2022-08-21T00:39:06;94897.31;;;17.94;100.00
23363;BME280;11853;48.080;11.960;2022-08-21T00:41:34;94887.41;;;17.95;100.00
23363;BME280;11853;48.080;11.960;2022-08-21T00:44:00;94889.88;;;17.96;100.00
23363;BME280;11853;48.080;11.960;2022-08-21T00:46:26;94893.59;;;17.95;100.00
23363;BME280;11853;48.080;11.960;2022-08-21T00:48:52;94897.09;;;17.96;100.00
23363;BME280;11853;48.080;11.960;2022-08-21T00:51:28;94889.28;;;17.94;100.00
23363;BME280;11853;48.080;11.960;2022-08-21T00:53:59;94885.72;;;17.94;100.00
23363;BME280;11853;48.080;11.960;2022-08-21T00:56:27;94890.28;;;17.93;100.00
23363;BME280;11853;48.080;11.960;2022-08-21T00:58:55;94890.09;;;17.95;100.00
23363;BME280;11853;48.080;11.960;2022-08-21T01:01:22;94886.59;;;17.94;100.00
23363;BME280;11853;48.080;11.960;2022-08-21T01:03:48;94884.50;;;17.96;100.00
23363;BME280;11853;48.080;11.960;2022-08-21T01:06:14;94884.47;;;17.90;100.00
23363;BME280;11853;48.080;11.960;2022-08-21T01:08:40;94881.59;;;17.91;100.00
23363;BME280;11853;48.080;11.960;2022-08-21T01:11:06;94886.75;;;17.93;100.00
23363;BME280;11853;48.080;11.960;2022-08-21T01:13:36;94875.00;;;17.94;100.00
23363;BME280;11853;48.080;11.960;2022-08-21T01:16:04;94876.28;;;17.98;100.00
23363;BME280;11853;48.080;11.960;2022-08-21T01:18:33;94866.34;;;17.98;100.00
23363;BME280;11853;48.080;11.960;2022-08-21T01:21:13;94869.28;;;18.04;100.00
23363;BME280;11853;48.080;11.960;2022-08-21T01:23:43;94869.88;;;17.99;100.00
23363;BME280;11853;48.080;11.960;2022-08-21T01:26:10;94877.09;;;17.98;100.00
23363;BME280;11853;48.080;11.960;2022-08-21T01:29:07;94869.63;;;17.94;100.00
23363;BME280;11853;48.080;11.960;2022-08-21T01:31:36;94865.94;;;17.95;100.00
23363;BME280;11853;48.080;11.960;2022-08-21T01:34:03;94869.41;;;17.89;100.00
23363;BME280;11853;48.080;11.960;2022-08-21T01:36:30;94870.03;;;17.91;100.00
23363;BME280;11853;48.080;11.960;2022-08-21T01:38:56;94866.94;;;17.94;100.00
23363;BME280;11853;48.080;11.960;2022-08-21T01:41:22;94865.94;;;17.95;100.00
23363;BME280;11853;48.080;11.960;2022-08-21T01:43:48;94869.44;;;17.95;100.00
23363;BME280;11853;48.080;11.960;2022-08-21T01:46:14;94869.44;;;17.95;100.00
23363;BME280;11853;48.080;11.960;2022-08-21T01:48:41;94870.66;;;17.93;100.00
23363;BME280;11853;48.080;11.960;2022-08-21T01:51:07;94875.84;;;17.94;100.00
23363;BME280;11853;48.080;11.960;2022-08-21T01:53:34;94876.25;;;17.91;100.00
23363;BME280;11853;48.080;11.960;2022-08-21T01:56:05;94875.19;;;17.92;100.00
23363;BME280;11853;48.080;11.960;2022-08-21T01:58:31;94874.59;;;17.97;100.00
23363;BME280;11853;48.080;11.960;2022-08-21T02:00:57;94879.34;;;17.95;100.00
23363;BME280;11853;48.080;11.960;2022-08-21T02:03:22;94871.91;;;17.97;100.00
23363;BME280;11853;48.080;11.960;2022-08-21T02:05:48;94871.69;;;17.92;100.00
23363;BME280;11853;48.080;11.960;2022-08-21T02:08:13;94865.03;;;17.88;100.00
23363;BME280;11853;48.080;11.960;2022-08-21T02:10:39;94868.78;;;17.87;100.00
23363;BME280;11853;48.080;11.960;2022-08-21T02:13:06;94863.78;;;17.84;100.00
23363;BME280;11853;48.080;11.960;2022-08-21T02:15:32;94861.13;;;17.84;100.00
23363;BME280;11853;48.080;11.960;2022-08-21T02:18:00;94854.69;;;17.78;100.00
23363;BME280;11853;48.080;11.960;2022-08-21T02:20:29;94850.78;;;17.81;100.00
23363;BME280;11853;48.080;11.960;2022-08-21T02:22:56;94848.09;;;17.81;100.00
23363;BME280;11853;48.080;11.960;2022-08-21T02:25:23;94853.25;;;17.82;100.00
23363;BME280;11853;48.080;11.960;2022-08-21T02:27:49;94846.41;;;17.79;100.00
23363;BME280;11853;48.080;11.960;2022-08-21T02:30:19;94851.78;;;17.79;100.00
23363;BME280;11853;48.080;11.960;2022-08-21T02:32:45;94853.00;;;17.77;100.00
23363;BME280;11853;48.080;11.960;2022-08-21T02:35:11;94853.00;;;17.77;100.00
23363;BME280;11853;48.080;11.960;2022-08-21T02:40:11;94851.53;;;17.74;100.00
23363;BME280;11853;48.080;11.960;2022-08-21T02:42:37;94846.31;;;17.66;100.00
23363;BME280;11853;48.080;11.960;2022-08-21T02:45:04;94848.34;;;17.64;100.00
23363;BME280;11853;48.080;11.960;2022-08-21T02:47:30;94851.69;;;17.66;100.00
23363;BME280;11853;48.080;11.960;2022-08-21T02:49:55;94850.22;;;17.64;100.00
23363;BME280;11853;48.080;11.960;2022-08-21T02:52:21;94855.16;;;17.60;100.00
23363;BME280;11853;48.080;11.960;2022-08-21T02:54:47;94853.47;;;17.59;100.00
23363;BME280;11853;48.080;11.960;2022-08-21T02:57:13;94856.97;;;17.60;100.00
23363;BME280;11853;48.080;11.960;2022-08-21T02:59:38;94860.13;;;17.63;100.00
23363;BME280;11853;48.080;11.960;2022-08-21T03:02:05;94862.81;;;17.63;100.00
23363;BME280;11853;48.080;11.960;2022-08-21T03:04:31;94854.13;;;17.61;100.00
23363;BME280;11853;48.080;11.960;2022-08-21T03:06:57;94854.28;;;17.60;100.00
23363;BME280;11853;48.080;11.960;2022-08-21T03:09:23;94858.22;;;17.57;100.00
23363;BME280;11853;48.080;11.960;2022-08-21T03:11:50;94860.06;;;17.56;100.00
23363;BME280;11853;48.080;11.960;2022-08-21T03:14:17;94856.94;;;17.53;100.00
23363;BME280;11853;48.080;11.960;2022-08-21T03:16:43;94859.00;;;17.51;100.00
23363;BME280;11853;48.080;11.960;2022-08-21T03:19:09;94848.84;;;17.46;100.00
23363;BME280;11853;48.080;11.960;2022-08-21T03:21:35;94858.31;;;17.42;100.00
23363;BME280;11853;48.080;11.960;2022-08-21T03:24:01;94855.00;;;17.40;100.00
23363;BME280;11853;48.080;11.960;2022-08-21T03:26:26;94856.22;;;17.38;100.00
23363;BME280;11853;48.080;11.960;2022-08-21T03:28:52;94858.69;;;17.39;100.00
23363;BME280;11853;48.080;11.960;2022-08-21T03:31:18;94859.28;;;17.34;100.00
23363;BME280;11853;48.080;11.960;2022-08-21T03:33:44;94859.09;;;17.36;100.00
23363;BME280;11853;48.080;11.960;2022-08-21T03:36:10;94865.53;;;17.42;100.00
23363;BME280;11853;48.080;11.960;2022-08-21T03:38:36;94866.13;;;17.37;100.00
23363;BME280;11853;48.080;11.960;2022-08-21T03:41:04;94867.34;;;17.34;100.00
23363;BME280;11853;48.080;11.960;2022-08-21T03:43:31;94863.59;;;17.29;100.00
23363;BME280;11853;48.080;11.960;2022-08-21T03:45:58;94868.47;;;17.25;100.00
23363;BME280;11853;48.080;11.960;2022-08-21T03:48:25;94869.91;;;17.21;100.00
23363;BME280;11853;48.080;11.960;2022-08-21T03:50:52;94863.28;;;17.17;100.00
23363;BME280;11853;48.080;11.960;2022-08-21T03:53:18;94865.31;;;17.15;100.00
23363;BME280;11853;48.080;11.960;2022-08-21T03:55:45;94867.34;;;17.13;100.00
23363;BME280;11853;48.080;11.960;2022-08-21T03:58:11;94875.66;;;17.18;100.00
23363;BME280;11853;48.080;11.960;2022-08-21T04:00:37;94873.53;;;17.14;100.00
23363;BME280;11853;48.080;11.960;2022-08-21T04:03:03;94866.91;;;17.09;100.00
23363;BME280;11853;48.080;11.960;2022-08-21T04:05:29;94868.94;;;17.07;100.00
23363;BME280;11853;48.080;11.960;2022-08-21T04:08:01;94869.53;;;17.03;100.00
23363;BME280;11853;48.080;11.960;2022-08-21T04:10:28;94869.94;;;17.00;100.00
23363;BME280;11853;48.080;11.960;2022-08-21T04:12:55;94869.53;;;17.03;100.00
23363;BME280;11853;48.080;11.960;2022-08-21T04:15:21;94871.38;;;17.02;100.00
23363;BME280;11853;48.080;11.960;2022-08-21T04:17:47;94872.22;;;17.03;100.00
23363;BME280;11853;48.080;11.960;2022-08-21T04:20:14;94875.53;;;17.05;100.00
23363;BME280;11853;48.080;11.960;2022-08-21T04:22:40;94882.56;;;17.06;100.00
23363;BME280;11853;48.080;11.960;2022-08-21T04:25:06;94880.25;;;17.03;100.00
23363;BME280;11853;48.080;11.960;2022-08-21T04:27:33;94886.00;;;17.00;100.00
23363;BME280;11853;48.080;11.960;2022-08-21T04:29:59;94892.00;;;17.02;100.00
23363;BME280;11853;48.080;11.960;2022-08-21T04:32:25;94896.34;;;17.03;100.00
23363;BME280;11853;48.080;11.960;2022-08-21T04:35:00;94902.16;;;17.06;100.00
23363;BME280;11853;48.080;11.960;2022-08-21T04:37:26;94900.69;;;17.04;100.00
23363;BME280;11853;48.080;11.960;2022-08-21T04:39:52;94899.16;;;16.95;100.00
23363;BME280;11853;48.080;11.960;2022-08-21T04:42:17;94902.59;;;16.88;100.00
23363;BME280;11853;48.080;11.960;2022-08-21T04:44:43;94901.75;;;16.88;100.00
23363;BME280;11853;48.080;11.960;2022-08-21T04:47:09;94908.56;;;16.91;100.00
23363;BME280;11853;48.080;11.960;2022-08-21T04:49:34;94905.00;;;16.83;100.00
23363;BME280;11853;48.080;11.960;2022-08-21T04:52:00;94903.53;;;16.81;100.00
23363;BME280;11853;48.080;11.960;2022-08-21T04:54:26;94901.94;;;16.86;100.00
23363;BME280;11853;48.080;11.960;2022-08-21T04:57:01;94903.16;;;16.84;100.00
23363;BME280;11853;48.080;11.960;2022-08-21T04:59:34;94908.41;;;16.92;100.00
23363;BME280;11853;48.080;11.960;2022-08-21T05:02:01;94913.38;;;16.95;100.00
23363;BME280;11853;48.080;11.960;2022-08-21T05:04:29;94906.81;;;16.98;100.00
23363;BME280;11853;48.080;11.960;2022-08-21T05:06:58;94910.13;;;17.00;100.00
23363;BME280;11853;48.080;11.960;2022-08-21T05:09:25;94900.72;;;17.10;100.00
23363;BME280;11853;48.080;11.960;2022-08-21T05:11:52;94907.19;;;17.16;100.00
23363;BME280;11853;48.080;11.960;2022-08-21T05:14:18;94911.22;;;17.27;100.00
23363;BME280;11853;48.080;11.960;2022-08-21T05:16:45;94910.50;;;17.18;100.00
23363;BME280;11853;48.080;11.960;2022-08-21T05:19:10;94912.75;;;17.15;100.00
23363;BME280;11853;48.080;11.960;2022-08-21T05:21:39;94912.63;;;17.23;100.00
23363;BME280;11853;48.080;11.960;2022-08-21T05:24:05;94921.34;;;17.53;100.00
23363;BME280;11853;48.080;11.960;2022-08-21T05:26:34;94920.06;;;17.98;100.00
23363;BME280;11853;48.080;11.960;2022-08-21T05:29:00;94915.97;;;18.44;100.00
23363;BME280;11853;48.080;11.960;2022-08-21T05:31:25;94917.00;;;18.91;100.00
23363;BME280;11853;48.080;11.960;2022-08-21T05:33:51;94921.84;;;19.29;100.00
23363;BME280;11853;48.080;11.960;2022-08-21T05:36:17;94925.59;;;19.61;100.00
23363;BME280;11853;48.080;11.960;2022-08-21T05:38:43;94932.25;;;19.92;100.00
23363;BME280;11853;48.080;11.960;2022-08-21T05:41:09;94932.63;;;20.22;100.00
23363;BME280;11853;48.080;11.960;2022-08-21T05:43:35;94934.63;;;20.46;98.44
23363;BME280;11853;48.080;11.960;2022-08-21T05:46:06;94935.63;;;20.72;96.95
23363;BME280;11853;48.080;11.960;2022-08-21T05:48:32;94938.00;;;20.93;96.22
23363;BME280;11853;48.080;11.960;2022-08-21T05:51:05;94939.59;;;21.08;94.24
23363;BME280;11853;48.080;11.960;2022-08-21T05:53:31;94935.78;;;21.22;93.74
23363;BME280;11853;48.080;11.960;2022-08-21T05:55:56;94932.19;;;21.35;92.76
23363;BME280;11853;48.080;11.960;2022-08-21T05:58:22;94935.88;;;21.47;92.66
23363;BME280;11853;48.080;11.960;2022-08-21T06:00:49;94932.91;;;21.55;91.41
23363;BME280;11853;48.080;11.960;2022-08-21T06:03:21;94934.50;;;21.63;90.60
23363;BME280;11853;48.080;11.960;2022-08-21T06:05:47;94933.03;;;21.67;90.58
23363;BME280;11853;48.080;11.960;2022-08-21T06:08:14;94936.34;;;21.69;89.99
23363;BME280;11853;48.080;11.960;2022-08-21T06:10:40;94940.69;;;21.70;91.00
23363;BME280;11853;48.080;11.960;2022-08-21T06:13:05;94935.66;;;21.74;90.86
23363;BME280;11853;48.080;11.960;2022-08-21T06:15:31;94936.66;;;21.79;91.20
23363;BME280;11853;48.080;11.960;2022-08-21T06:17:56;94937.28;;;21.81;91.06
23363;BME280;11853;48.080;11.960;2022-08-21T06:20:22;94937.91;;;21.84;89.77
23363;BME280;11853;48.080;11.960;2022-08-21T06:22:48;94933.69;;;21.88;91.16
23363;BME280;11853;48.080;11.960;2022-08-21T06:25:14;94935.94;;;21.91;89.97
23363;BME280;11853;48.080;11.960;2022-08-21T06:27:39;94945.44;;;22.00;91.73
23363;BME280;11853;48.080;11.960;2022-08-21T06:30:06;94932.09;;;22.05;89.91
23363;BME280;11853;48.080;11.960;2022-08-21T06:32:32;94934.72;;;22.12;90.50
23363;BME280;11853;48.080;11.960;2022-08-21T06:34:57;94941.25;;;22.04;88.58
23363;BME280;11853;48.080;11.960;2022-08-21T06:37:23;94929.38;;;22.05;90.36
23363;BME280;11853;48.080;11.960;2022-08-21T06:39:49;94933.31;;;22.09;89.21
23363;BME280;11853;48.080;11.960;2022-08-21T06:42:15;94927.91;;;22.09;89.07
23363;BME280;11853;48.080;11.960;2022-08-21T06:44:41;94928.66;;;22.16;89.01
23363;BME280;11853;48.080;11.960;2022-08-21T06:47:07;94926.16;;;22.21;88.63
23363;BME280;11853;48.080;11.960;2022-08-21T06:49:33;94927.59;;;22.24;87.60
23363;BME280;11853;48.080;11.960;2022-08-21T06:52:00;94919.84;;;22.27;87.96
23363;BME280;11853;48.080;11.960;2022-08-21T06:54:25;94918.78;;;22.29;87.00
23363;BME280;11853;48.080;11.960;2022-08-21T06:56:51;94921.72;;;22.27;86.55
23363;BME280;11853;48.080;11.960;2022-08-21T06:59:16;94927.75;;;22.29;87.60
23363;BME280;11853;48.080;11.960;2022-08-21T07:01:42;94919.56;;;22.36;89.29
23363;BME280;11853;48.080;11.960;2022-08-21T07:04:08;94924.28;;;22.40;88.50
23363;BME280;11853;48.080;11.960;2022-08-21T07:06:34;94926.75;;;22.42;87.20
23363;BME280;11853;48.080;11.960;2022-08-21T07:09:00;94924.44;;;22.45;85.84
23363;BME280;11853;48.080;11.960;2022-08-21T07:11:27;94921.72;;;22.45;86.78
23363;BME280;11853;48.080;11.960;2022-08-21T07:13:52;94932.50;;;22.52;86.98
23363;BME280;11853;48.080;11.960;2022-08-21T07:16:20;94923.94;;;22.55;87.26
23363;BME280;11853;48.080;11.960;2022-08-21T07:18:46;94920.38;;;22.55;85.29
23363;BME280;11853;48.080;11.960;2022-08-21T07:21:12;94914.44;;;22.64;85.56
23363;BME280;11853;48.080;11.960;2022-08-21T07:23:45;94924.72;;;22.74;86.00
23363;BME280;11853;48.080;11.960;2022-08-21T07:26:12;94921.16;;;22.92;85.94
23363;BME280;11853;48.080;11.960;2022-08-21T07:28:38;94926.19;;;22.95;84.47
23363;BME280;11853;48.080;11.960;2022-08-21T07:31:04;94927.81;;;22.96;84.04
23363;BME280;11853;48.080;11.960;2022-08-21T07:33:32;94920.91;;;23.00;82.90
23363;BME280;11853;48.080;11.960;2022-08-21T07:35:58;94922.03;;;22.92;82.47
23363;BME280;11853;48.080;11.960;2022-08-21T07:38:25;94923.03;;;22.98;83.62
23363;BME280;11853;48.080;11.960;2022-08-21T07:40:52;94917.38;;;23.00;82.59
23363;BME280;11853;48.080;11.960;2022-08-21T07:43:19;94922.09;;;23.04;84.07
23363;BME280;11853;48.080;11.960;2022-08-21T07:45:47;94924.00;;;23.04;82.43
23363;BME280;11853;48.080;11.960;2022-08-21T07:48:15;94918.78;;;23.02;81.79
23363;BME280;11853;48.080;11.960;2022-08-21T07:50:41;94918.34;;;23.05;81.75
23363;BME280;11853;48.080;11.960;2022-08-21T07:53:07;94920.59;;;23.08;81.86
23363;BME280;11853;48.080;11.960;2022-08-21T07:55:33;94916.22;;;23.07;81.33
23363;BME280;11853;48.080;11.960;2022-08-21T07:57:58;94912.59;;;23.13;82.25
23363;BME280;11853;48.080;11.960;2022-08-21T08:00:26;94910.03;;;23.19;82.40
23363;BME280;11853;48.080;11.960;2022-08-21T08:02:53;94912.16;;;23.16;82.83
23363;BME280;11853;48.080;11.960;2022-08-21T08:05:22;94912.97;;;23.17;81.79
23363;BME280;11853;48.080;11.960;2022-08-21T08:07:48;94915.47;;;23.19;82.32
23363;BME280;11853;48.080;11.960;2022-08-21T08:10:14;94907.34;;;23.19;82.82
23363;BME280;11853;48.080;11.960;2022-08-21T08:12:42;94908.75;;;23.21;82.63
23363;BME280;11853;48.080;11.960;2022-08-21T08:15:13;94909.47;;;23.28;83.22
23363;BME280;11853;48.080;11.960;2022-08-21T08:17:39;94902.56;;;23.32;83.26
23363;BME280;11853;48.080;11.960;2022-08-21T08:20:06;94903.97;;;23.35;82.97
23363;BME280;11853;48.080;11.960;2022-08-21T08:22:33;94900.09;;;23.43;84.22
23363;BME280;11853;48.080;11.960;2022-08-21T08:24:59;94904.84;;;23.47;83.55
23363;BME280;11853;48.080;11.960;2022-08-21T08:27:25;94899.41;;;23.47;82.37
23363;BME280;11853;48.080;11.960;2022-08-21T08:29:51;94900.47;;;23.46;81.46
23363;BME280;11853;48.080;11.960;2022-08-21T08:32:17;94895.03;;;23.46;82.23
23363;BME280;11853;48.080;11.960;2022-08-21T08:34:43;94900.00;;;23.49;81.87
23363;BME280;11853;48.080;11.960;2022-08-21T08:37:10;94897.88;;;23.51;82.66
23363;BME280;11853;48.080;11.960;2022-08-21T08:39:36;94889.63;;;23.46;81.28
23363;BME280;11853;48.080;11.960;2022-08-21T08:42:09;94896.56;;;23.42;80.25
23363;BME280;11853;48.080;11.960;2022-08-21T08:44:40;94893.72;;;23.37;79.56
23363;BME280;11853;48.080;11.960;2022-08-21T08:47:07;94897.97;;;23.33;80.41
23363;BME280;11853;48.080;11.960;2022-08-21T08:49:42;94891.28;;;23.35;80.85
23363;BME280;11853;48.080;11.960;2022-08-21T08:52:32;94894.34;;;23.39;80.66
23363;BME280;11853;48.080;11.960;2022-08-21T08:55:18;94901.16;;;23.42;81.08
23363;BME280;11853;48.080;11.960;2022-08-21T08:57:48;94902.94;;;23.48;81.23
23363;BME280;11853;48.080;11.960;2022-08-21T09:00:16;94895.66;;;23.48;80.19
23363;BME280;11853;48.080;11.960;2022-08-21T09:02:45;94897.88;;;23.51;79.92
23363;BME280;11853;48.080;11.960;2022-08-21T09:05:22;94898.72;;;23.52;80.40
23363;BME280;11853;48.080;11.960;2022-08-21T09:08:15;94902.59;;;23.44;79.09
23363;BME280;11853;48.080;11.960;2022-08-21T09:11:00;94896.78;;;23.41;77.73
23363;BME280;11853;48.080;11.960;2022-08-21T09:19:05;94900.38;;;23.53;78.50
23363;BME280;11853;48.080;11.960;2022-08-21T09:21:53;94901.34;;;23.58;79.08
23363;BME280;11853;48.080;11.960;2022-08-21T09:24:36;94895.59;;;23.67;80.28
23363;BME280;11853;48.080;11.960;2022-08-21T09:27:18;94899.28;;;23.72;80.27
23363;BME280;11853;48.080;11.960;2022-08-21T09:29:47;94898.81;;;23.75;80.74
23363;BME280;11853;48.080;11.960;2022-08-21T09:32:19;94902.34;;;23.76;80.20
23363;BME280;11853;48.080;11.960;2022-08-21T09:35:09;94896.91;;;23.76;79.51
23363;BME280;11853;48.080;11.960;2022-08-21T09:37:47;94901.16;;;23.83;79.90
23363;BME280;11853;48.080;11.960;2022-08-21T09:40:36;94888.66;;;23.94;80.73
23363;BME280;11853;48.080;11.960;2022-08-21T09:43:16;94895.28;;;23.98;80.95
23363;BME280;11853;48.080;11.960;2022-08-21T09:45:43;94898.94;;;24.04;81.44
23363;BME280;11853;48.080;11.960;2022-08-21T09:50:45;94896.22;;;24.16;80.89
23363;BME280;11853;48.080;11.960;2022-08-21T09:53:27;94895.50;;;24.09;79.18
23363;BME280;11853;48.080;11.960;2022-08-21T09:55:56;94893.75;;;24.02;77.26
23363;BME280;11853;48.080;11.960;2022-08-21T09:58:43;94889.97;;;24.03;78.78
23363;BME280;11853;48.080;11.960;2022-08-21T10:01:16;94887.84;;;24.05;78.68
23363;BME280;11853;48.080;11.960;2022-08-21T10:03:42;94887.84;;;24.05;76.28
23363;BME280;11853;48.080;11.960;2022-08-21T10:06:09;94881.97;;;24.09;77.32
23363;BME280;11853;48.080;11.960;2022-08-21T10:08:38;94880.91;;;24.10;77.16
23363;BME280;11853;48.080;11.960;2022-08-21T10:11:10;94880.66;;;24.11;78.02
23363;BME280;11853;48.080;11.960;2022-08-21T10:19:15;94881.38;;;24.07;77.88
23363;BME280;11853;48.080;11.960;2022-08-21T10:27:44;94879.38;;;24.14;77.31
23363;BME280;11853;48.080;11.960;2022-08-21T10:30:15;94888.09;;;24.16;76.25
23363;BME280;11853;48.080;11.960;2022-08-21T10:47:05;94877.81;;;23.94;76.94
23363;BME280;11853;48.080;11.960;2022-08-21T10:55:16;94871.47;;;23.77;78.72
23363;BME280;11853;48.080;11.960;2022-08-21T11:00:22;94861.91;;;23.86;79.03
23363;BME280;11853;48.080;11.960;2022-08-21T11:05:40;94857.91;;;24.00;74.73
23363;BME280;11853;48.080;11.960;2022-08-21T11:08:17;94853.22;;;24.08;74.70
23363;BME280;11853;48.080;11.960;2022-08-21T11:11:03;94859.31;;;24.15;74.11
23363;BME280;11853;48.080;11.960;2022-08-21T11:13:58;94856.72;;;24.20;74.94
23363;BME280;11853;48.080;11.960;2022-08-21T11:16:42;94851.41;;;24.25;73.47
23363;BME280;11853;48.080;11.960;2022-08-21T11:21:41;94842.31;;;24.31;75.04
23363;BME280;11853;48.080;11.960;2022-08-21T11:24:32;94842.56;;;24.18;73.09
23363;BME280;11853;48.080;11.960;2022-08-21T11:27:05;94838.72;;;24.02;73.52
23363;BME280;11853;48.080;11.960;2022-08-21T11:29:37;94843.88;;;23.92;72.22
23363;BME280;11853;48.080;11.960;2022-08-21T11:32:19;94834.13;;;23.79;75.07
23363;BME280;11853;48.080;11.960;2022-08-21T11:38:00;94841.34;;;23.55;75.60
23363;BME280;11853;48.080;11.960;2022-08-21T11:43:38;94836.84;;;23.37;79.86
23363;BME280;11853;48.080;11.960;2022-08-21T11:46:44;94832.38;;;23.31;80.57
23363;BME280;11853;48.080;11.960;2022-08-21T11:52:10;94829.28;;;23.15;82.76
23363;BME280;11853;48.080;11.960;2022-08-21T11:57:24;94819.03;;;23.17;83.76
23363;BME280;11853;48.080;11.960;2022-08-21T12:00:00;94818.69;;;23.26;82.43
23363;BME280;11853;48.080;11.960;2022-08-21T12:02:35;94812.94;;;23.34;81.49
23363;BME280;11853;48.080;11.960;2022-08-21T12:05:07;94814.25;;;23.43;81.11
23363;BME280;11853;48.080;11.960;2022-08-21T12:07:43;94805.19;;;23.49;79.58
23363;BME280;11853;48.080;11.960;2022-08-21T12:10:14;94819.94;;;23.53;77.80
23363;BME280;11853;48.080;11.960;2022-08-21T12:12:43;94823.59;;;23.59;76.64
23363;BME280;11853;48.080;11.960;2022-08-21T12:18:20;94817.00;;;23.67;73.69
23363;BME280;11853;48.080;11.960;2022-08-21T12:21:24;94810.44;;;23.74;73.97
23363;BME280;11853;48.080;11.960;2022-08-21T12:24:16;94816.31;;;23.83;73.88
23363;BME280;11853;48.080;11.960;2022-08-21T12:27:01;94808.78;;;23.85;68.45
23363;BME280;11853;48.080;11.960;2022-08-21T12:29:38;94802.41;;;23.91;70.62
23363;BME280;11853;48.080;11.960;2022-08-21T12:37:29;94803.59;;;24.07;72.07
23363;BME280;11853;48.080;11.960;2022-08-21T12:40:00;94794.63;;;24.07;72.76
23363;BME280;11853;48.080;11.960;2022-08-21T12:42:38;94792.75;;;24.07;72.51
23363;BME280;11853;48.080;11.960;2022-08-21T12:45:23;94792.38;;;24.03;72.60
23363;BME280;11853;48.080;11.960;2022-08-21T12:47:57;94785.56;;;24.01;71.64
23363;BME280;11853;48.080;11.960;2022-08-21T12:53:32;94778.72;;;23.98;74.07
23363;BME280;11853;48.080;11.960;2022-08-21T12:56:08;94779.88;;;24.02;73.93
23363;BME280;11853;48.080;11.960;2022-08-21T12:58:34;94774.59;;;24.08;73.99
23363;BME280;11853;48.080;11.960;2022-08-21T13:01:12;94780.34;;;24.11;71.49
23363;BME280;11853;48.080;11.960;2022-08-21T13:03:40;94781.75;;;24.14;72.13
23363;BME280;11853;48.080;11.960;2022-08-21T13:06:07;94783.41;;;24.15;73.59
23363;BME280;11853;48.080;11.960;2022-08-21T13:08:39;94785.06;;;24.16;74.76
23363;BME280;11853;48.080;11.960;2022-08-21T13:11:06;94772.06;;;24.18;74.43
23363;BME280;11853;48.080;11.960;2022-08-21T13:13:32;94776.19;;;24.20;74.59
23363;BME280;11853;48.080;11.960;2022-08-21T13:16:04;94767.56;;;24.23;74.32
23363;BME280;11853;48.080;11.960;2022-08-21T13:18:30;94766.09;;;24.16;73.15
23363;BME280;11853;48.080;11.960;2022-08-21T13:21:13;94773.50;;;24.09;73.60
23363;BME280;11853;48.080;11.960;2022-08-21T13:23:40;94769.53;;;23.99;73.54
23363;BME280;11853;48.080;11.960;2022-08-21T13:26:14;94768.38;;;23.95;73.28
23363;BME280;11853;48.080;11.960;2022-08-21T13:28:40;94764.25;;;23.93;73.20
23363;BME280;11853;48.080;11.960;2022-08-21T13:31:07;94767.28;;;23.96;74.09
23363;BME280;11853;48.080;11.960;2022-08-21T13:33:37;94763.28;;;23.99;73.97
23363;BME280;11853;48.080;11.960;2022-08-21T13:36:13;94768.22;;;24.02;73.48
23363;BME280;11853;48.080;11.960;2022-08-21T13:38:42;94765.19;;;23.98;73.51
23363;BME280;11853;48.080;11.960;2022-08-21T13:43:43;94750.91;;;23.91;71.72
23363;BME280;11853;48.080;11.960;2022-08-21T13:46:11;94752.31;;;23.94;72.06
23363;BME280;11853;48.080;11.960;2022-08-21T13:48:38;94753.16;;;23.94;73.26
23363;BME280;11853;48.080;11.960;2022-08-21T13:51:05;94749.28;;;23.90;73.77
23363;BME280;11853;48.080;11.960;2022-08-21T13:53:46;94749.16;;;23.85;72.05
23363;BME280;11853;48.080;11.960;2022-08-21T13:56:43;94749.63;;;23.82;72.19
23363;BME280;11853;48.080;11.960;2022-08-21T13:59:09;94758.13;;;23.74;71.37
23363;BME280;11853;48.080;11.960;2022-08-21T14:01:48;94754.22;;;23.70;72.05
23363;BME280;11853;48.080;11.960;2022-08-21T14:04:37;94750.56;;;23.64;72.24
23363;BME280;11853;48.080;11.960;2022-08-21T14:07:17;94752.81;;;23.67;71.17
23363;BME280;11853;48.080;11.960;2022-08-21T14:09:45;94754.44;;;23.68;70.84
23363;BME280;11853;48.080;11.960;2022-08-21T14:12:25;94741.97;;;23.67;71.30